createdAt,value
2023-05-14T00:01:00.019Z,9.07
2023-05-14T00:03:28.021Z,8.87
2023-05-14T00:05:55.831Z,8.27
2023-05-14T00:08:23.627Z,8.60
2023-05-14T00:10:51.371Z,8.43
2023-05-14T00:13:19.189Z,8.97
2023-05-14T00:15:46.969Z,8.27
2023-05-14T00:18:16.185Z,8.50
2023-05-14T00:20:44.245Z,8.60
2023-05-14T00:23:12.292Z,8.83
2023-05-14T00:25:40.077Z,8.90
2023-05-14T00:28:07.862Z,8.83
2023-05-14T00:30:35.873Z,8.80
2023-05-14T00:33:03.706Z,8.67
2023-05-14T00:35:35.316Z,8.17
2023-05-14T00:38:03.369Z,8.70
2023-05-14T00:40:31.229Z,8.93
2023-05-14T00:42:59.026Z,7.97
2023-05-14T00:45:27.023Z,8.27
2023-05-14T00:47:55.169Z,7.97
2023-05-14T00:50:24.173Z,8.07
2023-05-14T00:52:53.668Z,8.67
2023-05-14T00:55:22.943Z,8.27
2023-05-14T00:57:52.058Z,8.37
2023-05-14T01:00:20.274Z,8.03
2023-05-14T01:02:48.141Z,8.87
2023-05-14T01:05:16.155Z,8.17
2023-05-14T01:07:53.283Z,8.77
2023-05-14T01:10:26.354Z,8.57
2023-05-14T01:13:03.522Z,8.60
2023-05-14T01:15:33.214Z,9.23
2023-05-14T01:18:05.061Z,8.27
2023-05-14T01:20:32.968Z,8.00
2023-05-14T01:23:02.148Z,9.23
2023-05-14T01:25:30.968Z,8.80
2023-05-14T01:28:07.554Z,8.37
2023-05-14T01:30:38.437Z,9.50
2023-05-14T01:33:10.060Z,8.93
2023-05-14T01:35:38.294Z,8.43
2023-05-14T01:38:11.710Z,9.10
2023-05-14T01:40:40.470Z,8.27
2023-05-14T01:43:08.713Z,8.20
2023-05-14T01:45:37.252Z,8.70
2023-05-14T01:48:05.589Z,8.07
2023-05-14T01:50:33.872Z,7.93
2023-05-14T01:53:01.706Z,8.80
2023-05-14T01:55:30.822Z,8.07
2023-05-14T01:57:58.631Z,8.23
2023-05-14T02:00:26.856Z,8.07
2023-05-14T02:02:54.800Z,7.93
2023-05-14T02:05:22.625Z,7.50
2023-05-14T02:07:50.529Z,8.47
2023-05-14T02:10:18.320Z,8.13
2023-05-14T02:12:47.477Z,8.10
2023-05-14T02:15:15.319Z,8.40
2023-05-14T02:17:43.153Z,8.73
2023-05-14T02:20:11.922Z,7.90
2023-05-14T02:22:42.287Z,8.53
2023-05-14T02:25:11.445Z,7.77
2023-05-14T02:27:39.205Z,8.37
2023-05-14T02:30:09.797Z,7.63
2023-05-14T02:32:38.191Z,7.97
2023-05-14T02:35:06.919Z,7.87
2023-05-14T02:37:34.781Z,8.30
2023-05-14T02:40:02.644Z,7.83
2023-05-14T02:42:31.521Z,7.47
2023-05-14T02:44:59.697Z,7.70
2023-05-14T02:47:28.858Z,7.17
2023-05-14T02:49:56.613Z,7.80
2023-05-14T02:52:24.343Z,8.00
2023-05-14T02:54:52.110Z,8.27
2023-05-14T02:57:19.800Z,7.83
2023-05-14T02:59:47.539Z,8.47
2023-05-14T03:02:15.693Z,7.63
2023-05-14T03:04:45.175Z,7.93
2023-05-14T03:07:13.101Z,7.97
2023-05-14T03:09:40.873Z,7.53
2023-05-14T03:12:09.282Z,8.07
2023-05-14T03:14:36.948Z,7.97
2023-05-14T03:17:05.065Z,7.77
2023-05-14T03:19:32.940Z,8.03
2023-05-14T03:22:02.093Z,7.90
2023-05-14T03:24:29.850Z,7.93
2023-05-14T03:26:57.540Z,7.50
2023-05-14T03:29:25.394Z,7.77
2023-05-14T03:31:54.371Z,7.27
2023-05-14T03:34:22.444Z,6.90
2023-05-14T03:36:50.485Z,7.63
2023-05-14T03:39:20.168Z,6.43
2023-05-14T03:41:48.557Z,7.30
2023-05-14T03:44:16.586Z,8.10
2023-05-14T03:46:44.432Z,6.57
2023-05-14T03:49:12.357Z,7.03
2023-05-14T03:51:40.404Z,7.50
2023-05-14T03:54:08.251Z,6.57
2023-05-14T03:56:37.429Z,7.10
2023-05-14T03:59:05.121Z,7.53
2023-05-14T04:01:32.948Z,7.00
2023-05-14T04:04:00.798Z,7.33
2023-05-14T04:06:28.580Z,7.03
2023-05-14T04:08:56.295Z,7.13
2023-05-14T04:11:24.097Z,6.83
2023-05-14T04:13:53.309Z,7.37
2023-05-14T04:16:21.277Z,7.10
2023-05-14T04:18:49.217Z,6.10
2023-05-14T04:21:17.061Z,6.80
2023-05-14T04:23:44.762Z,6.43
2023-05-14T04:26:12.564Z,6.83
2023-05-14T04:28:40.568Z,6.47
2023-05-14T04:31:09.719Z,6.07
2023-05-14T04:33:37.489Z,6.90
2023-05-14T04:36:06.453Z,7.07
2023-05-14T04:38:34.267Z,6.83
2023-05-14T04:41:02.158Z,6.80
2023-05-14T04:43:29.967Z,6.73
2023-05-14T04:45:57.793Z,6.47
2023-05-14T04:48:27.209Z,6.70
2023-05-14T04:50:55.008Z,6.60
2023-05-14T04:53:22.742Z,7.20
2023-05-14T04:55:50.638Z,7.53
2023-05-14T04:58:18.377Z,7.83
2023-05-14T05:00:46.158Z,7.87
2023-05-14T05:03:14.030Z,7.87
2023-05-14T05:05:43.452Z,7.67
2023-05-14T05:08:11.794Z,7.73
2023-05-14T05:10:39.590Z,8.10
2023-05-14T05:13:07.335Z,8.77
2023-05-14T05:15:35.302Z,8.67
2023-05-14T05:18:03.316Z,8.97
2023-05-14T05:20:31.152Z,9.37
2023-05-14T05:23:00.628Z,9.87
2023-05-14T05:25:28.692Z,10.13
2023-05-14T05:27:56.948Z,9.27
2023-05-14T05:30:25.075Z,9.63
2023-05-14T05:32:53.133Z,9.50
2023-05-14T05:35:21.226Z,9.83
2023-05-14T05:37:49.120Z,10.57
2023-05-14T05:40:19.070Z,10.73
2023-05-14T05:42:46.928Z,10.73
2023-05-14T05:45:14.625Z,11.07
2023-05-14T05:47:42.436Z,11.17
2023-05-14T05:50:11.102Z,12.00
2023-05-14T05:52:39.068Z,11.80
2023-05-14T05:55:07.907Z,10.90
2023-05-14T05:57:37.286Z,11.23
2023-05-14T06:00:12.893Z,11.37
2023-05-14T06:02:40.922Z,12.07
2023-05-14T06:05:09.769Z,11.97
2023-05-14T06:07:37.746Z,12.40
2023-05-14T06:10:06.428Z,12.13
2023-05-14T06:12:34.212Z,11.80
2023-05-14T06:15:03.396Z,11.23
2023-05-14T06:17:31.166Z,11.13
2023-05-14T06:19:59.337Z,11.63
2023-05-14T06:22:27.415Z,11.97
2023-05-14T06:24:55.184Z,11.77
2023-05-14T06:27:23.118Z,11.80
2023-05-14T06:29:50.954Z,10.80
2023-05-14T06:32:20.210Z,11.00
2023-05-14T06:34:48.408Z,11.07
2023-05-14T06:37:16.210Z,10.10
2023-05-14T06:39:48.191Z,9.83
2023-05-14T06:42:15.908Z,10.33
2023-05-14T06:44:43.894Z,9.23
2023-05-14T06:47:11.824Z,8.80
2023-05-14T06:49:41.036Z,8.43
2023-05-14T06:52:09.367Z,8.37
2023-05-14T06:54:37.162Z,8.10
2023-05-14T06:57:05.338Z,8.67
2023-05-14T06:59:33.288Z,8.03
2023-05-14T07:02:01.352Z,8.17
2023-05-14T07:04:29.270Z,7.13
2023-05-14T07:06:58.492Z,7.57
2023-05-14T07:09:26.423Z,7.97
2023-05-14T07:11:54.230Z,7.87
2023-05-14T07:14:22.318Z,7.63
2023-05-14T07:16:50.113Z,9.13
2023-05-14T07:19:17.971Z,7.17
2023-05-14T07:21:45.693Z,7.57
2023-05-14T07:24:14.802Z,8.20
2023-05-14T07:26:42.666Z,7.93
2023-05-14T07:29:10.432Z,7.10
2023-05-14T07:31:38.290Z,7.07
2023-05-14T07:34:06.135Z,6.77
2023-05-14T07:36:33.939Z,7.83
2023-05-14T07:39:01.887Z,7.60
2023-05-14T07:41:31.056Z,6.70
2023-05-14T07:43:58.860Z,7.13
2023-05-14T07:46:26.859Z,6.87
2023-05-14T07:48:54.697Z,6.67
2023-05-14T07:51:23.182Z,7.67
2023-05-14T07:53:50.979Z,7.53
2023-05-14T07:56:18.710Z,6.20
2023-05-14T07:58:47.804Z,6.93
2023-05-14T08:01:15.984Z,6.90
2023-05-14T08:03:43.882Z,5.60
2023-05-14T08:06:11.740Z,6.63
2023-05-14T08:08:39.529Z,5.80
2023-05-14T08:11:07.337Z,5.97
2023-05-14T08:13:35.071Z,6.53
2023-05-14T08:16:04.369Z,6.40
2023-05-14T08:18:32.167Z,5.73
2023-05-14T08:21:01.034Z,5.63
2023-05-14T08:23:30.023Z,5.60
2023-05-14T08:25:57.802Z,6.00
2023-05-14T08:28:25.860Z,5.80
2023-05-14T08:30:53.744Z,4.97
2023-05-14T08:33:22.856Z,5.40
2023-05-14T08:35:51.815Z,5.07
2023-05-14T08:38:19.632Z,5.23
2023-05-14T08:40:49.851Z,5.17
2023-05-14T08:43:21.894Z,5.00
2023-05-14T08:45:53.434Z,4.40
2023-05-14T08:48:24.531Z,4.83
2023-05-14T08:50:52.637Z,4.70
2023-05-14T08:53:23.223Z,4.40
2023-05-14T08:55:52.202Z,4.57
2023-05-14T08:58:19.969Z,4.30
2023-05-14T09:00:47.978Z,4.27
2023-05-14T09:03:16.756Z,4.20
2023-05-14T09:05:47.409Z,4.40
2023-05-14T09:08:15.624Z,4.30
2023-05-14T09:10:43.507Z,3.83
2023-05-14T09:13:11.395Z,4.00
2023-05-14T09:15:41.367Z,4.33
2023-05-14T09:18:09.397Z,4.23
2023-05-14T09:20:37.383Z,5.13
2023-05-14T09:23:06.561Z,5.97
2023-05-14T09:25:34.523Z,5.13
2023-05-14T09:28:07.235Z,5.67
2023-05-14T09:30:37.047Z,5.93
2023-05-14T09:33:05.167Z,5.10
2023-05-14T09:35:33.452Z,5.27
2023-05-14T09:38:01.219Z,4.33
2023-05-14T09:40:30.287Z,5.83
2023-05-14T09:42:58.297Z,5.50
2023-05-14T09:45:26.330Z,5.60
2023-05-14T09:47:54.369Z,5.30
2023-05-14T09:50:22.936Z,4.90
2023-05-14T09:52:50.975Z,5.37
2023-05-14T09:55:19.409Z,5.53
2023-05-14T09:57:48.556Z,5.43
2023-05-14T10:00:17.170Z,5.07
2023-05-14T10:02:48.248Z,5.00
2023-05-14T10:05:16.683Z,5.73
2023-05-14T10:07:49.121Z,5.23
2023-05-14T10:10:19.684Z,5.50
2023-05-14T10:12:53.950Z,5.10
2023-05-14T10:15:25.079Z,4.33
2023-05-14T10:17:57.701Z,4.73
2023-05-14T10:20:27.538Z,4.60
2023-05-14T10:22:55.665Z,4.57
2023-05-14T10:25:24.127Z,4.70
2023-05-14T10:27:54.078Z,4.73
2023-05-14T10:30:23.954Z,5.00
2023-05-14T10:33:07.339Z,4.33
2023-05-14T10:35:52.845Z,4.90
2023-05-14T10:38:24.309Z,4.73
2023-05-14T10:40:54.093Z,4.03
2023-05-14T10:43:26.200Z,5.03
2023-05-14T10:45:54.628Z,5.53
2023-05-14T10:48:22.808Z,4.97
2023-05-14T10:50:52.325Z,4.90
2023-05-14T10:53:21.109Z,4.97
2023-05-14T10:55:48.910Z,5.63
2023-05-14T10:58:17.080Z,5.13
2023-05-14T11:00:49.847Z,5.90
2023-05-14T11:03:19.357Z,4.83
2023-05-14T11:05:47.799Z,5.30
2023-05-14T11:08:15.936Z,4.90
2023-05-14T11:10:44.266Z,4.73
2023-05-14T11:13:12.987Z,4.50
2023-05-14T11:15:47.136Z,5.40
2023-05-14T11:18:27.642Z,5.20
2023-05-14T11:20:55.598Z,4.93
2023-05-14T11:23:26.530Z,5.63
2023-05-14T11:25:54.895Z,5.13
2023-05-14T11:28:23.249Z,5.30
2023-05-14T11:30:51.342Z,5.17
2023-05-14T11:33:21.458Z,5.70
2023-05-14T11:35:49.696Z,5.43
2023-05-14T11:38:18.405Z,5.40
2023-05-14T11:40:53.443Z,5.07
2023-05-14T11:43:23.714Z,5.27
2023-05-14T11:45:52.678Z,5.07
2023-05-14T11:48:22.337Z,5.43
2023-05-14T11:50:51.425Z,4.50
2023-05-14T11:53:20.161Z,4.93
2023-05-14T11:55:48.427Z,4.37
2023-05-14T11:58:17.061Z,4.87
2023-05-14T12:00:45.768Z,4.70
2023-05-14T12:03:13.807Z,5.03
2023-05-14T12:05:56.199Z,4.57
2023-05-14T12:08:27.061Z,4.63
2023-05-14T12:10:55.227Z,4.53
2023-05-14T12:13:23.239Z,5.00
2023-05-14T12:15:57.179Z,4.73
2023-05-14T12:18:26.602Z,4.83
2023-05-14T12:20:56.259Z,4.67
2023-05-14T12:23:27.695Z,4.30
2023-05-14T12:25:55.475Z,4.47
2023-05-14T12:28:24.453Z,4.40
2023-05-14T12:30:57.687Z,4.37
2023-05-14T12:33:26.645Z,4.67
2023-05-14T12:35:58.950Z,4.77
2023-05-14T12:38:28.672Z,4.47
2023-05-14T12:40:56.864Z,4.40
2023-05-14T12:43:24.631Z,4.80
2023-05-14T12:45:52.563Z,4.37
2023-05-14T12:48:20.430Z,4.30
2023-05-14T12:50:48.823Z,4.60
2023-05-14T12:53:18.174Z,4.37
2023-05-14T12:55:45.988Z,3.97
2023-05-14T12:58:13.777Z,4.83
2023-05-14T13:00:41.556Z,4.70
2023-05-14T13:03:09.438Z,4.43
2023-05-14T13:05:37.278Z,3.70
2023-05-14T13:08:05.301Z,4.33
2023-05-14T13:10:34.400Z,4.90
2023-05-14T13:13:02.824Z,5.27
2023-05-14T13:15:32.738Z,4.97
2023-05-14T13:18:00.752Z,5.07
2023-05-14T13:20:29.543Z,4.17
2023-05-14T13:22:57.292Z,4.87
2023-05-14T13:25:25.341Z,4.77
2023-05-14T13:27:54.824Z,4.80
2023-05-14T13:30:22.584Z,5.40
2023-05-14T13:32:50.414Z,4.70
2023-05-14T13:35:18.318Z,4.30
2023-05-14T13:37:46.161Z,4.70
2023-05-14T13:40:14.491Z,4.57
2023-05-14T13:42:42.404Z,5.07
2023-05-14T13:45:12.994Z,4.20
2023-05-14T13:47:41.265Z,4.07
2023-05-14T13:50:09.825Z,5.00
2023-05-14T13:52:39.046Z,5.20
2023-05-14T13:55:08.220Z,4.50
2023-05-14T13:57:35.994Z,4.57
2023-05-14T14:00:05.066Z,4.87
2023-05-14T14:02:34.489Z,4.57
2023-05-14T14:05:02.316Z,4.30
2023-05-14T14:07:30.295Z,4.20
2023-05-14T14:09:58.017Z,4.40
2023-05-14T14:12:26.734Z,4.03
2023-05-14T14:14:55.285Z,4.47
2023-05-14T14:17:23.147Z,4.80
2023-05-14T14:19:52.572Z,4.20
2023-05-14T14:22:20.562Z,5.00
2023-05-14T14:24:48.338Z,4.17
2023-05-14T14:27:16.224Z,5.00
2023-05-14T14:29:44.203Z,3.70
2023-05-14T14:32:11.991Z,3.90
2023-05-14T14:34:39.790Z,4.40
2023-05-14T14:37:09.032Z,3.80
2023-05-14T14:39:36.899Z,3.70
2023-05-14T14:42:05.220Z,4.00
2023-05-14T14:44:32.938Z,4.10
2023-05-14T14:47:00.703Z,3.63
2023-05-14T14:49:28.858Z,3.50
2023-05-14T14:51:56.617Z,3.80
2023-05-14T14:54:25.879Z,3.47
2023-05-14T14:56:53.819Z,3.80
2023-05-14T14:59:21.577Z,4.20
2023-05-14T15:01:49.517Z,4.80
2023-05-14T15:04:17.380Z,4.20
2023-05-14T15:06:45.102Z,3.87
2023-05-14T15:09:12.927Z,3.83
2023-05-14T15:11:42.099Z,4.10
2023-05-14T15:14:10.004Z,3.87
2023-05-14T15:16:37.796Z,3.70
2023-05-14T15:19:05.674Z,4.03
2023-05-14T15:21:33.478Z,3.80
2023-05-14T15:24:01.320Z,3.90
2023-05-14T15:26:29.358Z,3.90
2023-05-14T15:28:59.105Z,3.60
2023-05-14T15:31:27.022Z,3.40
2023-05-14T15:33:56.061Z,4.00
2023-05-14T15:36:23.992Z,3.93
2023-05-14T15:38:51.789Z,4.10
2023-05-14T15:41:19.505Z,3.43
2023-05-14T15:43:47.261Z,3.70
2023-05-14T15:46:16.497Z,4.60
2023-05-14T15:48:44.372Z,3.60
2023-05-14T15:51:12.237Z,4.00
2023-05-14T15:53:40.035Z,4.47
2023-05-14T15:56:09.000Z,3.90
2023-05-14T15:58:36.719Z,3.80
2023-05-14T16:01:04.513Z,3.67
2023-05-14T16:03:33.773Z,3.60
2023-05-14T16:06:01.717Z,3.10
2023-05-14T16:08:29.759Z,3.27
2023-05-14T16:10:57.557Z,3.50
2023-05-14T16:13:26.481Z,3.40
2023-05-14T16:15:54.569Z,3.93
2023-05-14T16:18:22.503Z,3.77
2023-05-14T16:20:51.999Z,3.60
2023-05-14T16:23:19.829Z,3.37
2023-05-14T16:25:47.955Z,3.30
2023-05-14T16:28:15.925Z,3.63
2023-05-14T16:30:43.787Z,3.60
2023-05-14T16:33:11.870Z,3.67
2023-05-14T16:35:40.420Z,3.50
2023-05-14T16:38:09.573Z,3.30
2023-05-14T16:40:37.393Z,2.97
2023-05-14T16:43:05.432Z,3.03
2023-05-14T16:45:34.902Z,3.23
2023-05-14T16:48:02.843Z,3.40
2023-05-14T16:50:30.772Z,3.60
2023-05-14T16:52:58.594Z,3.17
2023-05-14T16:55:27.801Z,2.70
2023-05-14T16:57:55.686Z,2.70
2023-05-14T17:00:23.632Z,2.97
2023-05-14T17:02:54.111Z,2.77
2023-05-14T17:05:22.136Z,2.87
2023-05-14T17:07:50.143Z,3.00
2023-05-14T17:10:18.254Z,2.70
2023-05-14T17:12:47.534Z,2.80
2023-05-14T17:15:15.361Z,2.90
2023-05-14T17:17:43.274Z,2.43
2023-05-14T17:20:11.937Z,2.60
2023-05-14T17:22:39.787Z,2.57
2023-05-14T17:25:08.821Z,2.57
2023-05-14T17:27:36.792Z,2.63
2023-05-14T17:30:07.216Z,2.90
2023-05-14T17:32:35.232Z,2.80
2023-05-14T17:35:03.109Z,3.10
2023-05-14T17:37:31.057Z,2.93
2023-05-14T17:39:58.782Z,2.63
2023-05-14T17:42:26.701Z,3.33
2023-05-14T17:44:54.859Z,2.80
2023-05-14T17:47:24.172Z,2.97
2023-05-14T17:49:52.151Z,3.50
2023-05-14T17:52:20.094Z,2.77
2023-05-14T17:54:47.883Z,3.30
2023-05-14T17:57:15.743Z,3.10
2023-05-14T17:59:43.523Z,3.50
2023-05-14T18:02:11.996Z,3.50
2023-05-14T18:04:41.093Z,3.27
2023-05-14T18:07:09.000Z,3.40
2023-05-14T18:09:36.713Z,3.20
2023-05-14T18:12:04.819Z,3.97
2023-05-14T18:14:32.633Z,3.43
2023-05-14T18:17:00.472Z,3.83
2023-05-14T18:19:28.307Z,4.17
2023-05-14T18:21:57.401Z,4.00
2023-05-14T18:24:25.243Z,4.07
2023-05-14T18:26:53.064Z,3.63
2023-05-14T18:29:20.858Z,3.60
2023-05-14T18:31:48.626Z,3.80
2023-05-14T18:34:16.982Z,3.50
2023-05-14T18:36:44.735Z,4.00
2023-05-14T18:39:13.923Z,3.47
2023-05-14T18:41:41.827Z,3.63
2023-05-14T18:44:09.636Z,3.87
2023-05-14T18:46:37.503Z,3.97
2023-05-14T18:49:05.328Z,3.40
2023-05-14T18:51:33.112Z,3.67
2023-05-14T18:54:00.909Z,3.67
2023-05-14T18:56:30.800Z,4.03
2023-05-14T18:58:58.725Z,4.07
2023-05-14T19:01:26.632Z,4.03
2023-05-14T19:03:54.964Z,3.93
2023-05-14T19:06:23.226Z,3.80
2023-05-14T19:08:53.998Z,4.03
2023-05-14T19:11:25.328Z,3.77
2023-05-14T19:13:54.875Z,4.47
2023-05-14T19:16:23.199Z,4.30
2023-05-14T19:18:51.075Z,4.67
2023-05-14T19:21:19.083Z,4.27
2023-05-14T19:23:46.979Z,4.63
2023-05-14T19:26:14.731Z,4.27
2023-05-14T19:28:42.692Z,4.70
2023-05-14T19:31:12.144Z,5.50
2023-05-14T19:33:39.955Z,5.27
2023-05-14T19:36:08.008Z,5.17
2023-05-14T19:38:36.186Z,4.60
2023-05-14T19:41:04.167Z,4.87
2023-05-14T19:43:31.963Z,5.10
2023-05-14T19:46:01.656Z,5.27
2023-05-14T19:48:31.341Z,4.67
2023-05-14T19:50:59.271Z,4.93
2023-05-14T19:53:29.848Z,5.30
2023-05-14T19:55:58.048Z,5.73
2023-05-14T19:58:26.695Z,5.70
2023-05-14T20:00:57.238Z,6.03
2023-05-14T20:03:26.595Z,5.17
2023-05-14T20:05:56.537Z,6.17
2023-05-14T20:08:24.990Z,5.43
2023-05-14T20:10:53.037Z,6.10
2023-05-14T20:13:21.868Z,5.93
2023-05-14T20:15:51.219Z,6.27
2023-05-14T20:18:19.017Z,6.27
2023-05-14T20:20:46.967Z,6.63
2023-05-14T20:23:16.145Z,6.33
2023-05-14T20:25:44.287Z,6.17
2023-05-14T20:28:12.104Z,7.73
2023-05-14T20:30:40.159Z,7.70
2023-05-14T20:33:08.182Z,7.77
2023-05-14T20:35:36.127Z,8.00
2023-05-14T20:38:04.465Z,7.87
2023-05-14T20:40:33.551Z,7.40
2023-05-14T20:43:01.804Z,8.03
2023-05-14T20:45:29.579Z,7.33
2023-05-14T20:47:57.432Z,7.40
2023-05-14T20:50:27.066Z,6.73
2023-05-14T20:52:55.058Z,7.20
2023-05-14T20:55:23.011Z,7.20
2023-05-14T20:57:52.586Z,7.83
2023-05-14T21:00:21.030Z,8.10
2023-05-14T21:02:49.142Z,7.17
2023-05-14T21:05:17.783Z,7.77
2023-05-14T21:07:45.544Z,7.97
2023-05-14T21:10:13.318Z,8.27
2023-05-14T21:12:42.641Z,8.20
2023-05-14T21:15:13.167Z,7.60
2023-05-14T21:17:40.995Z,7.67
2023-05-14T21:20:11.950Z,8.20
2023-05-14T21:22:39.835Z,8.33
2023-05-14T21:25:08.140Z,8.93
2023-05-14T21:27:36.120Z,7.87
2023-05-14T21:30:04.108Z,7.40
2023-05-14T21:32:33.266Z,7.60
2023-05-14T21:35:00.917Z,7.70
2023-05-14T21:37:28.855Z,8.20
2023-05-14T21:39:56.698Z,7.87
2023-05-14T21:42:24.534Z,7.90
2023-05-14T21:44:52.311Z,7.57
2023-05-14T21:47:21.115Z,7.33
2023-05-14T21:49:50.329Z,8.00
2023-05-14T21:52:18.082Z,8.20
2023-05-14T21:54:45.824Z,7.77
2023-05-14T21:57:13.567Z,8.30
2023-05-14T21:59:41.474Z,8.63
2023-05-14T22:02:09.242Z,8.23
2023-05-14T22:04:37.082Z,8.40
2023-05-14T22:07:06.415Z,8.30
2023-05-14T22:09:34.239Z,9.03
2023-05-14T22:12:02.025Z,8.73
2023-05-14T22:14:29.793Z,9.10
2023-05-14T22:16:57.792Z,10.17
2023-05-14T22:19:26.847Z,9.57
2023-05-14T22:21:54.899Z,10.30
2023-05-14T22:24:23.956Z,11.67
2023-05-14T22:26:51.774Z,10.93
2023-05-14T22:29:19.530Z,10.17
2023-05-14T22:31:47.399Z,10.93
2023-05-14T22:34:15.240Z,10.53
2023-05-14T22:36:43.029Z,12.67
2023-05-14T22:39:12.678Z,11.13
2023-05-14T22:41:42.600Z,11.47
2023-05-14T22:44:10.443Z,11.77
2023-05-14T22:46:38.317Z,11.93
2023-05-14T22:49:06.380Z,12.33
2023-05-14T22:51:34.211Z,11.63
2023-05-14T22:54:02.033Z,11.67
2023-05-14T22:56:29.869Z,12.27
2023-05-14T22:59:00.281Z,12.57
2023-05-14T23:01:28.363Z,11.87
2023-05-14T23:03:56.482Z,11.80
2023-05-14T23:06:26.433Z,12.20
2023-05-14T23:08:54.163Z,11.63
2023-05-14T23:11:22.459Z,12.30
2023-05-14T23:13:50.284Z,12.17
2023-05-14T23:16:19.504Z,12.30
2023-05-14T23:18:47.694Z,11.87
2023-05-14T23:21:15.709Z,12.50
2023-05-14T23:23:43.479Z,11.87
2023-05-14T23:26:11.280Z,13.13
2023-05-14T23:28:39.121Z,11.93
2023-05-14T23:31:06.972Z,11.33
2023-05-14T23:33:36.051Z,11.70
2023-05-14T23:36:04.414Z,12.20
2023-05-14T23:38:32.291Z,13.03
2023-05-14T23:41:00.126Z,12.17
2023-05-14T23:43:27.879Z,10.83
2023-05-14T23:45:55.910Z,11.63
2023-05-14T23:48:23.768Z,12.53
2023-05-14T23:50:53.069Z,11.43
2023-05-14T23:53:20.990Z,11.00
2023-05-14T23:55:48.817Z,12.10
2023-05-14T23:58:16.619Z,11.30
